createdAt,value
2022-10-05T00:01:55.248Z,102269.41
2022-10-05T00:04:25.938Z,102278.41
2022-10-05T00:06:59.490Z,102270.50
2022-10-05T00:09:30.287Z,102267.75
2022-10-05T00:11:57.366Z,102266.97
2022-10-05T00:14:30.591Z,102275.03
2022-10-05T00:16:58.024Z,102283.13
2022-10-05T00:19:33.942Z,102281.31
2022-10-05T00:22:10.774Z,102281.06
2022-10-05T00:24:38.064Z,102286.31
2022-10-05T00:27:17.961Z,102275.44
2022-10-05T00:29:46.573Z,102284.88
2022-10-05T00:32:13.837Z,102290.13
2022-10-05T00:34:41.902Z,102294.50
2022-10-05T00:37:09.621Z,102290.09
2022-10-05T00:39:39.200Z,102290.19
2022-10-05T00:42:18.606Z,102284.50
2022-10-05T00:44:59.537Z,102296.81
2022-10-05T00:47:40.504Z,102296.53
2022-10-05T00:50:29.034Z,102298.19
2022-10-05T00:53:17.814Z,102296.69
2022-10-05T00:56:00.187Z,102292.22
2022-10-05T00:59:04.804Z,102286.19
2022-10-05T01:01:56.816Z,102282.66
2022-10-05T01:04:39.914Z,102289.00
2022-10-05T01:07:22.389Z,102277.59
2022-10-05T01:10:26.966Z,102273.34
2022-10-05T01:13:22.134Z,102266.22
2022-10-05T01:16:09.456Z,102276.00
2022-10-05T01:18:45.722Z,102277.16
2022-10-05T01:21:19.519Z,102267.44
2022-10-05T01:24:01.676Z,102278.00
2022-10-05T01:27:01.833Z,102267.66
2022-10-05T01:29:44.811Z,102268.94
2022-10-05T01:32:18.011Z,102267.34
2022-10-05T01:34:52.651Z,102266.72
2022-10-05T01:37:41.863Z,102274.16
2022-10-05T01:40:09.110Z,102273.44
2022-10-05T01:43:13.182Z,102271.97
2022-10-05T01:46:05.237Z,102265.00
2022-10-05T01:48:55.319Z,102267.78
2022-10-05T01:51:33.699Z,102270.38
2022-10-05T01:54:12.095Z,102272.00
2022-10-05T01:56:53.040Z,102267.06
2022-10-05T01:59:29.490Z,102268.25
2022-10-05T02:02:12.915Z,102262.13
2022-10-05T02:05:02.106Z,102260.28
2022-10-05T02:07:36.002Z,102271.75
2022-10-05T02:10:11.639Z,102268.34
2022-10-05T02:12:38.955Z,102269.34
2022-10-05T02:15:13.734Z,102274.59
2022-10-05T02:17:48.869Z,102272.78
2022-10-05T02:20:28.722Z,102273.72
2022-10-05T02:23:04.383Z,102278.09
2022-10-05T02:25:37.536Z,102284.00
2022-10-05T02:28:29.376Z,102290.47
2022-10-05T02:31:05.417Z,102290.97
2022-10-05T02:33:34.763Z,102285.03
2022-10-05T02:36:19.693Z,102281.59
2022-10-05T02:39:06.983Z,102284.28
2022-10-05T02:42:15.963Z,102281.59
2022-10-05T02:45:15.543Z,102277.97
2022-10-05T02:47:57.686Z,102272.91
2022-10-05T02:50:52.867Z,102275.47
2022-10-05T02:53:34.689Z,102276.28
2022-10-05T02:56:01.817Z,102278.22
2022-10-05T02:58:53.480Z,102278.97
2022-10-05T03:01:34.330Z,102273.75
2022-10-05T03:04:12.714Z,102271.09
2022-10-05T03:06:49.550Z,102271.97
2022-10-05T03:09:20.675Z,102268.50
2022-10-05T03:11:53.946Z,102273.75
2022-10-05T03:14:31.162Z,102274.84
2022-10-05T03:17:15.885Z,102273.03
2022-10-05T03:20:01.979Z,102273.97
2022-10-05T03:22:50.482Z,102275.75
2022-10-05T03:25:37.738Z,102274.03
2022-10-05T03:28:29.558Z,102269.59
2022-10-05T03:31:20.876Z,102280.78
2022-10-05T03:33:58.023Z,102286.75
2022-10-05T03:36:36.374Z,102285.91
2022-10-05T03:39:14.286Z,102282.44
2022-10-05T03:42:18.498Z,102278.06
2022-10-05T03:44:54.378Z,102283.88
2022-10-05T03:47:28.139Z,102284.16
2022-10-05T03:50:30.667Z,102292.25
2022-10-05T03:53:06.446Z,102285.53
2022-10-05T03:56:03.073Z,102288.53
2022-10-05T03:59:05.349Z,102293.31
2022-10-05T04:01:56.717Z,102287.41
2022-10-05T04:04:36.546Z,102285.94
2022-10-05T04:07:08.627Z,102286.84
2022-10-05T04:09:42.622Z,102287.78
2022-10-05T04:12:24.709Z,102288.78
2022-10-05T04:15:18.912Z,102295.03
2022-10-05T04:17:51.515Z,102293.25
2022-10-05T04:20:48.022Z,102294.97
2022-10-05T04:23:18.402Z,102299.41
2022-10-05T04:25:56.136Z,102305.59
2022-10-05T04:28:51.461Z,102307.63
2022-10-05T04:31:54.657Z,102297.25
2022-10-05T04:34:54.436Z,102304.59
2022-10-05T04:37:46.365Z,102307.19
2022-10-05T04:40:42.606Z,102301.09
2022-10-05T04:43:20.224Z,102296.03
2022-10-05T04:46:13.604Z,102303.25
2022-10-05T04:49:13.132Z,102304.88
2022-10-05T04:51:59.806Z,102302.66
2022-10-05T04:54:47.209Z,102310.41
2022-10-05T04:57:26.654Z,102304.25
2022-10-05T05:00:31.198Z,102303.19
2022-10-05T05:03:35.353Z,102308.13
2022-10-05T05:06:32.466Z,102306.00
2022-10-05T05:09:11.651Z,102309.44
2022-10-05T05:12:10.822Z,102303.59
2022-10-05T05:15:06.994Z,102310.75
2022-10-05T05:18:05.122Z,102299.34
2022-10-05T05:21:05.548Z,102308.19
2022-10-05T05:23:48.208Z,102306.88
2022-10-05T05:26:27.157Z,102317.69
2022-10-05T05:29:33.328Z,102322.44
2022-10-05T05:32:10.265Z,102315.13
2022-10-05T05:34:40.458Z,102320.16
2022-10-05T05:37:15.274Z,102320.94
2022-10-05T05:40:00.592Z,102327.22
2022-10-05T05:42:30.706Z,102323.47
2022-10-05T05:45:11.275Z,102332.09
2022-10-05T05:47:44.484Z,102330.03
2022-10-05T05:50:54.366Z,102338.47
2022-10-05T05:53:28.377Z,102337.66
2022-10-05T05:56:06.820Z,102348.53
2022-10-05T05:58:44.286Z,102338.63
2022-10-05T06:01:32.218Z,102348.25
2022-10-05T06:04:22.012Z,102336.75
2022-10-05T06:06:52.290Z,102349.19
2022-10-05T06:09:26.718Z,102348.91
2022-10-05T06:12:13.157Z,102348.97
2022-10-05T06:14:45.499Z,102357.03
2022-10-05T06:17:26.369Z,102355.00
2022-10-05T06:20:02.512Z,102362.06
2022-10-05T06:22:40.966Z,102360.25
2022-10-05T06:25:11.798Z,102353.28
2022-10-05T06:27:58.957Z,102361.97
2022-10-05T06:30:40.474Z,102356.22
2022-10-05T06:33:20.443Z,102365.28
2022-10-05T06:36:04.771Z,102363.75
2022-10-05T06:38:41.935Z,102367.69
2022-10-05T06:41:29.256Z,102371.63
2022-10-05T06:44:17.759Z,102366.81
2022-10-05T06:47:03.383Z,102363.84
2022-10-05T06:50:17.856Z,102372.78
2022-10-05T06:53:25.524Z,102375.22
2022-10-05T06:56:10.724Z,102384.47
2022-10-05T06:58:47.172Z,102381.41
2022-10-05T07:01:48.101Z,102382.91
2022-10-05T07:04:21.446Z,102390.19
2022-10-05T07:06:51.652Z,102386.00
2022-10-05T07:09:22.531Z,102386.97
2022-10-05T07:12:17.917Z,102389.75
2022-10-05T07:15:10.786Z,102391.19
2022-10-05T07:17:52.565Z,102395.94
2022-10-05T07:20:32.935Z,102386.88
2022-10-05T07:23:36.975Z,102389.81
2022-10-05T07:26:33.624Z,102386.59
2022-10-05T07:29:07.651Z,102384.97
2022-10-05T07:31:57.567Z,102397.75
2022-10-05T07:34:38.516Z,102384.38
2022-10-05T07:37:30.239Z,102385.53
2022-10-05T07:40:14.912Z,102396.44
2022-10-05T07:43:03.837Z,102394.22
2022-10-05T07:46:01.480Z,102396.38
2022-10-05T07:48:35.406Z,102396.28
2022-10-05T07:51:46.282Z,102390.44
2022-10-05T07:54:25.603Z,102394.25
2022-10-05T07:57:01.148Z,102397.19
2022-10-05T07:59:56.701Z,102396.22
2022-10-05T08:02:35.803Z,102400.81
2022-10-05T08:05:15.486Z,102399.84
2022-10-05T08:07:43.404Z,102401.69
2022-10-05T08:10:30.086Z,102409.00
2022-10-05T08:13:15.363Z,102416.16
2022-10-05T08:15:48.727Z,102414.41
2022-10-05T08:18:26.515Z,102418.03
2022-10-05T08:20:58.458Z,102417.63
2022-10-05T08:23:28.463Z,102420.75
2022-10-05T08:26:21.724Z,102416.56
2022-10-05T08:28:54.310Z,102415.78
2022-10-05T08:31:29.704Z,102423.19
2022-10-05T08:34:02.336Z,102420.06
2022-10-05T08:36:59.637Z,102421.81
2022-10-05T08:39:31.739Z,102425.88
2022-10-05T08:42:26.487Z,102421.16
2022-10-05T08:45:36.893Z,102416.44
2022-10-05T08:48:23.034Z,102416.75
2022-10-05T08:51:03.901Z,102414.28
2022-10-05T08:53:42.892Z,102417.25
2022-10-05T08:56:35.009Z,102418.63
2022-10-05T08:59:34.118Z,102424.59
2022-10-05T09:02:35.519Z,102421.00
2022-10-05T09:05:20.677Z,102422.09
2022-10-05T09:08:21.768Z,102424.22
2022-10-05T09:11:14.953Z,102414.53
2022-10-05T09:13:54.234Z,102428.78
2022-10-05T09:16:39.746Z,102423.53
2022-10-05T09:19:31.059Z,102421.53
2022-10-05T09:22:13.734Z,102429.31
2022-10-05T09:24:51.074Z,102427.47
2022-10-05T09:27:23.967Z,102436.59
2022-10-05T09:30:06.399Z,102424.56
2022-10-05T09:33:01.371Z,102421.97
2022-10-05T09:35:47.091Z,102415.50
2022-10-05T09:38:32.888Z,102419.31
2022-10-05T09:41:18.686Z,102423.34
2022-10-05T09:44:16.711Z,102422.63
2022-10-05T09:47:02.244Z,102426.53
2022-10-05T09:49:51.259Z,102420.16
2022-10-05T09:52:19.215Z,102419.00
2022-10-05T09:55:02.809Z,102415.88
2022-10-05T09:57:50.853Z,102417.22
2022-10-05T10:00:50.098Z,102414.91
2022-10-05T10:03:44.588Z,102414.63
2022-10-05T10:06:34.394Z,102421.34
2022-10-05T10:09:21.406Z,102407.63
2022-10-05T10:12:23.750Z,102409.13
2022-10-05T10:14:53.473Z,102402.81
2022-10-05T10:17:47.812Z,102407.47
2022-10-05T10:20:48.649Z,102406.34
2022-10-05T10:24:19.026Z,102415.69
2022-10-05T10:27:21.863Z,102406.78
2022-10-05T10:29:57.742Z,102406.91
2022-10-05T10:32:48.567Z,102416.63
2022-10-05T10:35:31.613Z,102408.97
2022-10-05T10:38:13.865Z,102416.38
2022-10-05T10:41:21.035Z,102420.25
2022-10-05T10:44:25.467Z,102411.97
2022-10-05T10:47:28.030Z,102413.72
2022-10-05T10:50:33.119Z,102414.69
2022-10-05T10:53:33.157Z,102409.50
2022-10-05T10:56:12.222Z,102411.91
2022-10-05T10:59:09.375Z,102407.38
2022-10-05T11:01:59.565Z,102406.38
2022-10-05T11:04:53.571Z,102406.97
2022-10-05T11:07:30.955Z,102398.56
2022-10-05T11:10:22.832Z,102397.00
2022-10-05T11:13:08.496Z,102393.41
2022-10-05T11:15:50.603Z,102391.38
2022-10-05T11:18:45.759Z,102384.84
2022-10-05T11:21:34.146Z,102384.09
2022-10-05T11:24:07.303Z,102368.59
2022-10-05T11:26:37.035Z,102372.50
2022-10-05T11:29:11.020Z,102373.63
2022-10-05T11:32:18.393Z,102361.16
2022-10-05T11:35:17.643Z,102361.25
2022-10-05T11:38:12.703Z,102354.94
2022-10-05T11:41:27.962Z,102358.34
2022-10-05T11:44:19.665Z,102351.56
2022-10-05T11:47:12.924Z,102348.16
2022-10-05T11:50:10.420Z,102351.81
2022-10-05T11:52:46.852Z,102356.06
2022-10-05T11:55:37.322Z,102353.81
2022-10-05T11:58:17.410Z,102352.66
2022-10-05T12:00:54.467Z,102346.69
2022-10-05T12:03:51.262Z,102347.25
2022-10-05T12:06:42.295Z,102343.00
2022-10-05T12:10:02.983Z,102343.91
2022-10-05T12:12:38.281Z,102350.63
2022-10-05T12:15:26.857Z,102346.00
2022-10-05T12:18:01.678Z,102340.44
2022-10-05T12:20:46.542Z,102349.09
2022-10-05T12:23:17.682Z,102341.13
2022-10-05T12:25:51.383Z,102335.63
2022-10-05T12:28:27.977Z,102330.13
2022-10-05T12:31:04.367Z,102330.25
2022-10-05T12:33:42.766Z,102332.03
2022-10-05T12:36:21.318Z,102324.00
2022-10-05T12:39:09.830Z,102313.38
2022-10-05T12:42:11.133Z,102320.81
2022-10-05T12:44:56.479Z,102314.16
2022-10-05T12:48:00.699Z,102307.41
2022-10-05T12:50:34.443Z,102306.34
2022-10-05T12:53:39.084Z,102298.75
2022-10-05T12:56:21.494Z,102292.81
2022-10-05T12:59:16.641Z,102290.06
2022-10-05T13:01:54.531Z,102297.78
2022-10-05T13:04:55.808Z,102292.09
2022-10-05T13:07:44.202Z,102294.41
2022-10-05T13:10:36.081Z,102306.41
2022-10-05T13:13:15.399Z,102298.00
2022-10-05T13:16:10.924Z,102298.34
2022-10-05T13:18:49.808Z,102288.72
2022-10-05T13:21:24.761Z,102294.53
2022-10-05T13:24:13.331Z,102294.25
2022-10-05T13:27:01.431Z,102297.50
2022-10-05T13:29:40.444Z,102292.53
2022-10-05T13:32:17.754Z,102296.50
2022-10-05T13:35:22.012Z,102298.03
2022-10-05T13:38:20.233Z,102291.63
2022-10-05T13:41:12.195Z,102292.56
2022-10-05T13:43:48.610Z,102298.44
2022-10-05T13:46:24.640Z,102296.09
2022-10-05T13:49:29.489Z,102303.16
2022-10-05T13:52:19.599Z,102297.53
2022-10-05T13:55:15.998Z,102299.91
2022-10-05T13:57:57.498Z,102297.53
2022-10-05T14:00:27.052Z,102294.50
2022-10-05T14:03:00.667Z,102291.41
2022-10-05T14:05:30.714Z,102291.41
2022-10-05T14:08:17.331Z,102287.16
2022-10-05T14:10:46.920Z,102281.88
2022-10-05T14:13:34.037Z,102285.44
2022-10-05T14:16:13.002Z,102278.47
2022-10-05T14:18:51.483Z,102278.91
2022-10-05T14:21:28.900Z,102274.91
2022-10-05T14:23:58.672Z,102274.78
2022-10-05T14:26:25.732Z,102272.34
2022-10-05T14:29:14.357Z,102274.06
2022-10-05T14:31:54.550Z,102267.66
2022-10-05T14:34:39.240Z,102269.78
2022-10-05T14:37:32.273Z,102270.84
2022-10-05T14:40:25.250Z,102264.53
2022-10-05T14:42:53.311Z,102266.84
2022-10-05T14:45:21.618Z,102266.75
2022-10-05T14:47:52.875Z,102263.59
2022-10-05T14:50:29.714Z,102264.00
2022-10-05T14:53:12.163Z,102251.41
2022-10-05T14:56:01.424Z,102258.16
2022-10-05T14:59:04.058Z,102256.97
2022-10-05T15:01:39.149Z,102267.59
2022-10-05T15:04:21.209Z,102263.66
2022-10-05T15:07:00.562Z,102257.69
2022-10-05T15:10:02.484Z,102260.84
2022-10-05T15:12:33.395Z,102269.69
2022-10-05T15:15:12.115Z,102262.31
2022-10-05T15:17:46.443Z,102262.34
2022-10-05T15:20:29.095Z,102271.09
2022-10-05T15:23:09.529Z,102262.22
2022-10-05T15:25:46.329Z,102268.78
2022-10-05T15:28:43.199Z,102269.91
2022-10-05T15:31:31.347Z,102272.84
2022-10-05T15:34:13.211Z,102269.31
2022-10-05T15:36:52.772Z,102269.16
2022-10-05T15:39:35.083Z,102272.34
2022-10-05T15:42:06.763Z,102274.16
2022-10-05T15:45:17.074Z,102283.25
2022-10-05T15:47:59.926Z,102274.31
2022-10-05T15:50:28.616Z,102273.88
2022-10-05T15:53:16.789Z,102272.31
2022-10-05T15:56:01.915Z,102279.16
2022-10-05T15:58:47.795Z,102275.72
2022-10-05T16:01:20.262Z,102278.25
2022-10-05T16:03:57.914Z,102281.16
2022-10-05T16:06:57.150Z,102286.66
2022-10-05T16:09:27.211Z,102276.13
2022-10-05T16:12:09.811Z,102288.84
2022-10-05T16:15:20.169Z,102280.13
2022-10-05T16:18:09.122Z,102281.66
2022-10-05T16:20:59.981Z,102284.03
2022-10-05T16:23:50.877Z,102289.06
2022-10-05T16:26:45.607Z,102293.38
2022-10-05T16:29:54.163Z,102287.53
2022-10-05T16:32:33.566Z,102293.72
2022-10-05T16:35:38.788Z,102296.50
2022-10-05T16:38:28.606Z,102298.84
2022-10-05T16:41:04.843Z,102302.19
2022-10-05T16:43:57.674Z,102307.22
2022-10-05T16:46:35.571Z,102303.31
2022-10-05T16:49:17.737Z,102298.72
2022-10-05T16:52:00.574Z,102304.75
2022-10-05T16:54:48.413Z,102302.56
2022-10-05T16:57:26.886Z,102310.03
2022-10-05T17:00:13.379Z,102298.66
2022-10-05T17:03:01.089Z,102311.03
2022-10-05T17:05:55.977Z,102313.72
2022-10-05T17:08:49.261Z,102321.78
2022-10-05T17:11:44.870Z,102310.81
2022-10-05T17:14:20.730Z,102317.16
2022-10-05T17:16:56.290Z,102321.31
2022-10-05T17:19:55.835Z,102325.84
2022-10-05T17:22:37.702Z,102325.84
2022-10-05T17:25:18.266Z,102325.00
2022-10-05T17:28:19.898Z,102327.09
2022-10-05T17:30:58.654Z,102329.38
2022-10-05T17:33:27.649Z,102325.25
2022-10-05T17:36:09.687Z,102328.69
2022-10-05T17:38:49.261Z,102321.31
2022-10-05T17:41:44.852Z,102325.63
2022-10-05T17:44:16.143Z,102331.34
2022-10-05T17:46:45.965Z,102328.66
2022-10-05T17:49:34.138Z,102339.78
2022-10-05T17:52:23.454Z,102337.81
2022-10-05T17:55:09.240Z,102338.19
2022-10-05T17:57:37.166Z,102338.94
2022-10-05T18:00:08.834Z,102347.13
2022-10-05T18:02:37.499Z,102341.97
2022-10-05T18:05:04.652Z,102342.78
2022-10-05T18:07:34.035Z,102343.72
2022-10-05T18:10:20.962Z,102345.16
2022-10-05T18:13:10.849Z,102345.97
2022-10-05T18:15:45.251Z,102360.25
2022-10-05T18:18:36.147Z,102360.69
2022-10-05T18:21:15.139Z,102360.41
2022-10-05T18:24:01.347Z,102366.25
2022-10-05T18:26:53.387Z,102371.84
2022-10-05T18:30:03.165Z,102369.72
2022-10-05T18:32:59.961Z,102372.09
2022-10-05T18:35:57.967Z,102369.53
2022-10-05T18:38:51.197Z,102372.63
2022-10-05T18:41:57.193Z,102376.66
2022-10-05T18:44:34.563Z,102372.81
2022-10-05T18:47:10.556Z,102370.44
2022-10-05T18:49:59.143Z,102367.34
2022-10-05T18:52:39.447Z,102376.06
2022-10-05T18:55:32.726Z,102379.28
2022-10-05T18:58:04.338Z,102381.56
2022-10-05T19:00:53.362Z,102381.69
2022-10-05T19:03:26.254Z,102372.34
2022-10-05T19:06:17.613Z,102378.97
2022-10-05T19:09:12.031Z,102378.44
2022-10-05T19:12:22.193Z,102384.13
2022-10-05T19:15:06.890Z,102387.66
2022-10-05T19:18:00.439Z,102384.66
2022-10-05T19:20:37.235Z,102384.00
2022-10-05T19:23:35.034Z,102381.91
2022-10-05T19:26:14.363Z,102382.34
2022-10-05T19:29:03.371Z,102370.75
2022-10-05T19:31:43.677Z,102380.69
2022-10-05T19:34:25.975Z,102383.50
2022-10-05T19:37:05.235Z,102391.81
2022-10-05T19:39:54.806Z,102387.88
2022-10-05T19:43:00.586Z,102396.31
2022-10-05T19:45:31.519Z,102390.59
2022-10-05T19:48:17.010Z,102392.94
2022-10-05T19:50:55.803Z,102387.19
2022-10-05T19:53:36.952Z,102397.34
2022-10-05T19:56:21.248Z,102400.53
2022-10-05T19:58:50.040Z,102400.13
2022-10-05T20:01:34.010Z,102395.84
2022-10-05T20:04:01.246Z,102400.81
2022-10-05T20:06:29.585Z,102405.69
2022-10-05T20:09:04.202Z,102400.72
2022-10-05T20:11:32.052Z,102404.66
2022-10-05T20:13:59.651Z,102408.47
2022-10-05T20:16:48.502Z,102400.75
2022-10-05T20:19:36.488Z,102405.59
2022-10-05T20:22:23.161Z,102407.44
2022-10-05T20:24:52.479Z,102412.13
2022-10-05T20:27:47.296Z,102420.72
2022-10-05T20:30:15.933Z,102419.38
2022-10-05T20:32:44.998Z,102422.25
2022-10-05T20:35:12.252Z,102416.13
2022-10-05T20:37:40.210Z,102417.97
2022-10-05T20:40:08.278Z,102422.44
2022-10-05T20:42:35.348Z,102418.34
2022-10-05T20:45:03.333Z,102422.13
2022-10-05T20:47:30.399Z,102428.63
2022-10-05T20:49:57.544Z,102429.66
2022-10-05T20:52:24.619Z,102425.56
2022-10-05T20:54:59.208Z,102425.84
2022-10-05T20:57:26.555Z,102425.53
2022-10-05T20:59:53.686Z,102429.44
2022-10-05T21:02:20.851Z,102431.22
2022-10-05T21:04:48.059Z,102426.94
2022-10-05T21:07:17.624Z,102435.03
2022-10-05T21:09:46.474Z,102432.47
2022-10-05T21:12:14.354Z,102421.78
2022-10-05T21:14:41.522Z,102430.13
2022-10-05T21:17:09.410Z,102427.22
2022-10-05T21:19:40.201Z,102431.09
2022-10-05T21:22:09.415Z,102434.66
2022-10-05T21:24:37.955Z,102428.63
2022-10-05T21:27:05.471Z,102427.66
2022-10-05T21:29:34.190Z,102431.38
2022-10-05T21:32:01.395Z,102428.63
2022-10-05T21:34:28.891Z,102426.50
2022-10-05T21:36:56.027Z,102425.81
2022-10-05T21:39:24.627Z,102423.97
2022-10-05T21:41:52.015Z,102423.22
2022-10-05T21:44:19.214Z,102418.84
2022-10-05T21:46:47.420Z,102407.97
2022-10-05T21:49:19.555Z,102413.06
2022-10-05T21:51:47.351Z,102413.56
2022-10-05T21:54:18.242Z,102405.28
2022-10-05T21:56:50.234Z,102409.69
2022-10-05T21:59:22.172Z,102399.78
2022-10-05T22:01:49.359Z,102398.16
2022-10-05T22:04:16.451Z,102395.16
2022-10-05T22:06:43.679Z,102399.78
2022-10-05T22:09:10.951Z,102396.44
2022-10-05T22:11:38.181Z,102388.94
2022-10-05T22:14:05.300Z,102394.09
2022-10-05T22:16:35.282Z,102393.66
2022-10-05T22:19:07.148Z,102390.00
2022-10-05T22:21:38.143Z,102391.44
2022-10-05T22:24:05.662Z,102390.84
2022-10-05T22:26:34.734Z,102400.16
2022-10-05T22:29:03.389Z,102394.97
2022-10-05T22:31:30.601Z,102405.66
2022-10-05T22:33:57.796Z,102400.66
2022-10-05T22:36:24.974Z,102408.06
2022-10-05T22:38:52.082Z,102401.38
2022-10-05T22:41:19.373Z,102397.91
2022-10-05T22:43:50.803Z,102395.66
2022-10-05T22:46:18.405Z,102399.31
2022-10-05T22:48:45.583Z,102399.31
2022-10-05T22:51:12.735Z,102399.47
2022-10-05T22:53:39.889Z,102401.53
2022-10-05T22:56:12.102Z,102401.63
2022-10-05T22:58:40.531Z,102399.19
2022-10-05T23:01:10.474Z,102395.81
2022-10-05T23:03:37.622Z,102387.16
2022-10-05T23:06:26.363Z,102393.53
2022-10-05T23:08:54.454Z,102393.56
2022-10-05T23:11:25.853Z,102392.03
2022-10-05T23:13:55.601Z,102386.00
2022-10-05T23:16:25.105Z,102398.63
2022-10-05T23:18:54.187Z,102393.38
2022-10-05T23:21:23.322Z,102393.59
2022-10-05T23:23:53.539Z,102383.97
2022-10-05T23:26:23.249Z,102391.13
2022-10-05T23:28:50.559Z,102397.47
2022-10-05T23:31:21.475Z,102386.19
2022-10-05T23:33:48.656Z,102382.19
2022-10-05T23:36:18.379Z,102385.88
2022-10-05T23:38:45.649Z,102382.19
2022-10-05T23:41:13.814Z,102389.50
2022-10-05T23:43:40.962Z,102393.03
2022-10-05T23:46:09.369Z,102381.66
2022-10-05T23:48:39.717Z,102377.28
2022-10-05T23:51:09.222Z,102381.72
2022-10-05T23:53:36.687Z,102384.47
2022-10-05T23:56:04.712Z,102381.81
2022-10-05T23:58:32.389Z,102383.00
